createdAt,value
2019-02-17T00:02:13.349Z,54.60
2019-02-17T00:04:42.965Z,62.60
2019-02-17T00:07:12.278Z,62.33
2019-02-17T00:09:41.644Z,63.45
2019-02-17T00:12:10.952Z,61.53
2019-02-17T00:14:49.479Z,60.52
2019-02-17T00:17:19.183Z,61.13
2019-02-17T00:19:50.927Z,56.25
2019-02-17T00:22:20.553Z,60.85
2019-02-17T00:24:50.175Z,61.13
2019-02-17T00:27:19.530Z,60.88
2019-02-17T00:29:49.000Z,57.53
2019-02-17T00:32:18.348Z,58.40
2019-02-17T00:34:47.654Z,55.00
2019-02-17T00:37:17.370Z,53.58
2019-02-17T00:39:46.996Z,53.52
2019-02-17T00:42:16.336Z,52.23
2019-02-17T00:44:46.078Z,52.43
2019-02-17T00:47:15.701Z,55.45
2019-02-17T00:49:45.016Z,49.18
2019-02-17T00:52:14.384Z,45.98
2019-02-17T00:54:44.019Z,49.70
2019-02-17T00:57:13.351Z,50.05
2019-02-17T00:59:42.941Z,48.05
2019-02-17T01:02:12.649Z,46.42
2019-02-17T01:04:42.258Z,43.68
2019-02-17T01:07:11.614Z,45.58
2019-02-17T01:09:41.251Z,44.13
2019-02-17T01:12:10.617Z,46.68
2019-02-17T01:14:40.259Z,47.03
2019-02-17T01:17:09.601Z,43.50
2019-02-17T01:19:38.943Z,47.43
2019-02-17T01:22:08.566Z,44.18
2019-02-17T01:24:37.889Z,42.30
2019-02-17T01:27:07.560Z,42.27
2019-02-17T01:29:37.275Z,51.75
2019-02-17T01:32:07.012Z,40.03
2019-02-17T01:34:36.354Z,42.05
2019-02-17T01:37:06.517Z,47.60
2019-02-17T01:39:35.823Z,42.27
2019-02-17T01:42:05.174Z,45.05
2019-02-17T01:44:34.833Z,40.15
2019-02-17T01:47:04.171Z,41.48
2019-02-17T01:49:33.732Z,41.30
2019-02-17T01:52:03.092Z,39.05
2019-02-17T01:54:32.792Z,36.95
2019-02-17T01:57:02.107Z,38.10
2019-02-17T01:59:34.148Z,41.77
2019-02-17T02:02:03.710Z,42.27
2019-02-17T02:04:33.073Z,41.95
2019-02-17T02:07:02.459Z,38.38
2019-02-17T02:09:31.805Z,39.63
2019-02-17T02:12:01.173Z,41.77
2019-02-17T02:14:31.125Z,44.95
2019-02-17T02:17:00.436Z,35.55
2019-02-17T02:19:30.050Z,42.93
2019-02-17T02:21:59.772Z,37.38
2019-02-17T02:24:29.372Z,38.40
2019-02-17T02:26:58.716Z,40.00
2019-02-17T02:29:28.382Z,39.35
2019-02-17T02:31:57.726Z,36.10
2019-02-17T02:34:27.034Z,37.75
2019-02-17T02:36:56.680Z,34.10
2019-02-17T02:39:26.035Z,36.63
2019-02-17T02:41:55.341Z,38.13
2019-02-17T02:44:24.754Z,34.18
2019-02-17T02:46:54.394Z,36.28
2019-02-17T02:49:24.038Z,36.60
2019-02-17T02:51:53.399Z,37.28
2019-02-17T02:54:22.720Z,37.58
2019-02-17T02:56:52.375Z,34.73
2019-02-17T02:59:21.731Z,36.15
2019-02-17T03:01:51.121Z,37.85
2019-02-17T03:04:20.471Z,33.33
2019-02-17T03:06:51.699Z,34.20
2019-02-17T03:09:21.022Z,32.10
2019-02-17T03:11:50.354Z,33.88
2019-02-17T03:14:19.766Z,45.60
2019-02-17T03:16:49.367Z,36.05
2019-02-17T03:19:18.977Z,36.33
2019-02-17T03:21:48.335Z,33.80
2019-02-17T03:24:18.011Z,35.33
2019-02-17T03:26:47.441Z,34.53
2019-02-17T03:29:16.806Z,40.52
2019-02-17T03:31:46.118Z,34.38
2019-02-17T03:34:15.423Z,38.38
2019-02-17T03:36:44.784Z,38.28
2019-02-17T03:39:14.089Z,35.75
2019-02-17T03:41:43.406Z,33.42
2019-02-17T03:44:12.767Z,37.30
2019-02-17T03:46:42.073Z,32.15
2019-02-17T03:49:11.709Z,32.63
2019-02-17T03:51:41.072Z,31.10
2019-02-17T03:54:10.415Z,35.30
2019-02-17T03:56:40.024Z,33.13
2019-02-17T03:59:09.723Z,35.40
2019-02-17T04:01:39.028Z,30.35
2019-02-17T04:04:08.358Z,30.23
2019-02-17T04:06:37.772Z,31.05
2019-02-17T04:09:08.257Z,32.45
2019-02-17T04:11:37.861Z,32.10
2019-02-17T04:14:07.996Z,29.42
2019-02-17T04:16:37.363Z,29.15
2019-02-17T04:19:07.002Z,28.85
2019-02-17T04:21:36.715Z,28.45
2019-02-17T04:24:06.032Z,31.52
2019-02-17T04:26:35.617Z,28.98
2019-02-17T04:29:05.004Z,30.80
2019-02-17T04:31:34.643Z,27.62
2019-02-17T04:34:03.949Z,27.35
2019-02-17T04:36:33.566Z,26.62
2019-02-17T04:39:04.378Z,32.08
2019-02-17T04:41:33.691Z,28.55
2019-02-17T04:44:03.059Z,26.12
2019-02-17T04:46:32.681Z,29.98
2019-02-17T04:49:01.981Z,26.62
2019-02-17T04:51:31.579Z,27.52
2019-02-17T04:54:00.926Z,25.68
2019-02-17T04:56:30.497Z,29.70
2019-02-17T04:59:00.017Z,27.73
2019-02-17T05:01:29.325Z,25.62
2019-02-17T05:03:58.675Z,26.40
2019-02-17T05:06:28.035Z,24.30
2019-02-17T05:08:57.615Z,26.75
2019-02-17T05:11:27.243Z,26.20
2019-02-17T05:13:56.628Z,28.40
2019-02-17T05:16:26.229Z,26.85
2019-02-17T05:18:55.830Z,27.32
2019-02-17T05:21:25.193Z,27.87
2019-02-17T05:23:54.506Z,26.60
2019-02-17T05:26:23.813Z,28.23
2019-02-17T05:28:53.171Z,25.15
2019-02-17T05:31:22.544Z,25.17
2019-02-17T05:33:51.856Z,25.52
2019-02-17T05:36:21.554Z,25.27
2019-02-17T05:38:50.895Z,28.70
2019-02-17T05:41:20.236Z,26.80
2019-02-17T05:43:49.598Z,23.77
2019-02-17T05:46:18.966Z,22.25
2019-02-17T05:48:48.402Z,26.82
2019-02-17T05:51:18.208Z,26.85
2019-02-17T05:53:50.270Z,27.90
2019-02-17T05:56:19.615Z,30.00
2019-02-17T05:58:49.010Z,27.50
2019-02-17T06:01:18.371Z,32.42
2019-02-17T06:03:47.686Z,26.42
2019-02-17T06:06:17.042Z,27.62
2019-02-17T06:08:46.412Z,27.20
2019-02-17T06:11:15.756Z,27.70
2019-02-17T06:13:45.110Z,27.85
2019-02-17T06:16:14.480Z,26.52
2019-02-17T06:18:44.045Z,25.88
2019-02-17T06:21:13.403Z,28.00
2019-02-17T06:23:42.771Z,26.33
2019-02-17T06:26:12.356Z,29.32
2019-02-17T06:28:41.711Z,31.48
2019-02-17T06:31:14.434Z,24.98
2019-02-17T06:33:42.710Z,26.60
2019-02-17T06:36:12.081Z,28.85
2019-02-17T06:38:41.732Z,27.10
2019-02-17T06:41:11.036Z,26.35
2019-02-17T06:43:40.494Z,26.60
2019-02-17T06:46:11.507Z,27.73
2019-02-17T06:48:40.813Z,26.97
2019-02-17T06:51:10.292Z,25.85
2019-02-17T06:53:39.606Z,25.88
2019-02-17T06:56:19.588Z,24.77
2019-02-17T06:58:48.893Z,29.25
2019-02-17T07:01:24.696Z,25.57
2019-02-17T07:03:49.881Z,32.25
2019-02-17T07:06:21.119Z,28.20
2019-02-17T07:08:50.752Z,26.55
2019-02-17T07:11:20.149Z,27.93
2019-02-17T07:13:49.453Z,30.88
2019-02-17T07:16:20.405Z,28.10
2019-02-17T07:18:49.822Z,28.47
2019-02-17T07:21:19.138Z,26.45
2019-02-17T07:23:48.451Z,29.25
2019-02-17T07:26:17.813Z,34.48
2019-02-17T07:28:47.122Z,28.27
2019-02-17T07:31:16.709Z,29.42
2019-02-17T07:33:46.097Z,28.47
2019-02-17T07:36:15.697Z,26.77
2019-02-17T07:38:45.046Z,27.02
2019-02-17T07:41:14.608Z,28.15
2019-02-17T07:43:43.949Z,31.42
2019-02-17T07:46:13.259Z,30.62
2019-02-17T07:48:42.651Z,28.98
2019-02-17T07:51:12.015Z,29.20
2019-02-17T07:53:41.322Z,33.98
2019-02-17T07:56:10.688Z,33.10
2019-02-17T07:58:40.044Z,30.77
2019-02-17T08:01:09.399Z,31.52
2019-02-17T08:03:38.772Z,30.25
2019-02-17T08:06:08.082Z,31.35
2019-02-17T08:08:37.431Z,32.90
2019-02-17T08:11:06.840Z,33.53
2019-02-17T08:13:36.433Z,30.12
2019-02-17T08:16:06.053Z,33.50
2019-02-17T08:18:35.589Z,34.80
2019-02-17T08:21:05.236Z,30.32
2019-02-17T08:23:34.857Z,33.20
2019-02-17T08:26:04.217Z,31.62
2019-02-17T08:28:33.882Z,33.90
2019-02-17T08:31:03.477Z,36.28
2019-02-17T08:33:32.866Z,30.97
2019-02-17T08:36:02.177Z,31.82
2019-02-17T08:38:31.486Z,33.40
2019-02-17T08:41:00.966Z,32.00
2019-02-17T08:43:30.321Z,31.02
2019-02-17T08:45:59.633Z,33.63
2019-02-17T08:48:28.998Z,32.98
2019-02-17T08:50:58.316Z,29.92
2019-02-17T08:53:27.887Z,32.95
2019-02-17T08:55:57.288Z,33.40
2019-02-17T08:58:26.630Z,30.95
2019-02-17T09:00:55.942Z,31.55
2019-02-17T09:03:25.305Z,32.48
2019-02-17T09:05:54.618Z,32.00
2019-02-17T09:08:24.304Z,35.73
2019-02-17T09:10:53.668Z,30.75
2019-02-17T09:13:23.013Z,30.43
2019-02-17T09:15:52.629Z,30.08
2019-02-17T09:18:21.988Z,33.20
2019-02-17T09:20:51.301Z,32.85
2019-02-17T09:23:20.607Z,33.55
2019-02-17T09:25:50.337Z,31.10
2019-02-17T09:28:19.647Z,34.33
2019-02-17T09:30:48.970Z,32.70
2019-02-17T09:33:18.640Z,28.05
2019-02-17T09:35:49.894Z,32.38
2019-02-17T09:38:19.490Z,29.20
2019-02-17T09:40:48.834Z,31.35
2019-02-17T09:43:18.407Z,34.03
2019-02-17T09:45:47.999Z,33.15
2019-02-17T09:48:17.867Z,30.82
2019-02-17T09:50:47.178Z,31.62
2019-02-17T09:53:16.773Z,30.37
2019-02-17T09:55:46.464Z,32.10
2019-02-17T09:58:16.016Z,33.83
2019-02-17T10:00:45.403Z,33.35
2019-02-17T10:03:14.751Z,31.95
2019-02-17T10:05:44.363Z,34.08
2019-02-17T10:08:13.801Z,33.33
2019-02-17T10:10:43.038Z,34.35
2019-02-17T10:13:12.354Z,31.20
2019-02-17T10:15:41.716Z,33.67
2019-02-17T10:18:11.032Z,36.80
2019-02-17T10:20:40.341Z,33.50
2019-02-17T10:23:09.969Z,32.48
2019-02-17T10:25:39.595Z,33.75
2019-02-17T10:28:08.927Z,33.60
2019-02-17T10:30:38.290Z,37.55
2019-02-17T10:33:07.644Z,32.50
2019-02-17T10:35:36.958Z,32.98
2019-02-17T10:38:06.586Z,32.67
2019-02-17T10:40:35.891Z,36.95
2019-02-17T10:43:05.239Z,32.15
2019-02-17T10:45:34.906Z,31.85
2019-02-17T10:48:04.607Z,34.20
2019-02-17T10:50:34.206Z,31.85
2019-02-17T10:53:03.952Z,40.58
2019-02-17T10:55:33.300Z,33.67
2019-02-17T10:58:02.623Z,31.25
2019-02-17T11:00:32.008Z,37.15
2019-02-17T11:03:05.756Z,32.67
2019-02-17T11:05:35.447Z,33.18
2019-02-17T11:08:04.964Z,33.75
2019-02-17T11:10:34.237Z,33.55
2019-02-17T11:13:03.556Z,34.27
2019-02-17T11:15:33.321Z,34.05
2019-02-17T11:18:02.678Z,31.12
2019-02-17T11:20:32.379Z,34.88
2019-02-17T11:23:01.977Z,31.60
2019-02-17T11:25:31.406Z,32.23
2019-02-17T11:28:00.986Z,30.90
2019-02-17T11:30:30.357Z,32.67
2019-02-17T11:32:59.919Z,34.58
2019-02-17T11:35:29.967Z,33.50
2019-02-17T11:37:59.422Z,38.42
2019-02-17T11:40:29.040Z,31.33
2019-02-17T11:42:58.354Z,33.98
2019-02-17T11:45:28.280Z,31.57
2019-02-17T11:47:57.842Z,37.50
2019-02-17T11:50:27.478Z,30.15
2019-02-17T11:52:57.192Z,31.42
2019-02-17T11:55:26.507Z,32.65
2019-02-17T11:57:55.933Z,33.50
2019-02-17T12:00:25.582Z,33.02
2019-02-17T12:02:54.934Z,32.65
2019-02-17T12:05:24.586Z,32.78
2019-02-17T12:07:53.934Z,33.90
2019-02-17T12:10:25.794Z,32.15
2019-02-17T12:12:55.168Z,34.75
2019-02-17T12:15:24.512Z,34.58
2019-02-17T12:17:59.209Z,30.45
2019-02-17T12:20:35.843Z,31.70
2019-02-17T12:23:06.875Z,32.98
2019-02-17T12:25:37.907Z,30.35
2019-02-17T12:28:11.769Z,29.72
2019-02-17T12:30:42.962Z,29.98
2019-02-17T12:33:19.255Z,31.77
2019-02-17T12:35:43.376Z,30.12
2019-02-17T12:38:12.788Z,29.98
2019-02-17T12:40:42.532Z,29.40
2019-02-17T12:43:13.213Z,33.08
2019-02-17T12:45:42.581Z,29.30
2019-02-17T12:48:12.174Z,33.20
2019-02-17T12:50:41.494Z,28.83
2019-02-17T12:53:10.878Z,32.05
2019-02-17T12:55:43.089Z,31.17
2019-02-17T12:58:12.402Z,28.00
2019-02-17T13:00:41.813Z,29.25
2019-02-17T13:03:11.190Z,30.68
2019-02-17T13:05:40.556Z,29.77
2019-02-17T13:08:10.815Z,28.35
2019-02-17T13:10:40.196Z,50.00
2019-02-17T13:13:09.561Z,45.65
2019-02-17T13:15:38.969Z,42.80
2019-02-17T13:18:08.579Z,63.05
2019-02-17T13:20:37.897Z,49.10
2019-02-17T13:23:07.281Z,42.03
2019-02-17T13:25:38.318Z,32.78
2019-02-17T13:28:07.780Z,32.90
2019-02-17T13:30:37.206Z,35.28
2019-02-17T13:33:06.887Z,28.45
2019-02-17T13:35:36.228Z,31.68
2019-02-17T13:38:05.605Z,28.30
2019-02-17T13:40:35.248Z,28.55
2019-02-17T13:43:04.561Z,26.68
2019-02-17T13:45:33.932Z,30.57
2019-02-17T13:48:03.254Z,33.75
2019-02-17T13:50:32.569Z,33.90
2019-02-17T13:53:11.280Z,36.42
2019-02-17T13:55:33.086Z,29.48
2019-02-17T13:58:02.443Z,27.58
2019-02-17T14:00:32.154Z,27.62
2019-02-17T14:03:01.513Z,26.25
2019-02-17T14:05:31.136Z,27.30
2019-02-17T14:08:00.505Z,28.30
2019-02-17T14:10:29.860Z,26.30
2019-02-17T14:12:59.532Z,27.45
2019-02-17T14:15:28.916Z,25.88
2019-02-17T14:17:58.565Z,25.32
2019-02-17T14:20:27.888Z,26.77
2019-02-17T14:22:57.584Z,33.78
2019-02-17T14:25:27.169Z,24.98
2019-02-17T14:27:56.487Z,22.58
2019-02-17T14:30:25.863Z,25.10
2019-02-17T14:32:55.474Z,23.95
2019-02-17T14:35:25.112Z,22.58
2019-02-17T14:37:54.780Z,24.37
2019-02-17T14:40:24.161Z,24.67
2019-02-17T14:42:55.331Z,25.10
2019-02-17T14:45:24.847Z,23.62
2019-02-17T14:47:54.192Z,22.35
2019-02-17T14:50:23.511Z,24.20
2019-02-17T14:52:53.179Z,23.55
2019-02-17T14:55:22.512Z,27.13
2019-02-17T14:57:51.826Z,25.23
2019-02-17T15:00:21.306Z,23.92
2019-02-17T15:02:50.663Z,22.82
2019-02-17T15:05:19.985Z,25.02
2019-02-17T15:07:49.662Z,23.70
2019-02-17T15:10:19.020Z,24.67
2019-02-17T15:12:48.367Z,23.70
2019-02-17T15:15:18.095Z,23.25
2019-02-17T15:17:47.682Z,22.52
2019-02-17T15:20:20.506Z,24.32
2019-02-17T15:22:49.943Z,22.22
2019-02-17T15:25:19.375Z,21.87
2019-02-17T15:27:48.700Z,22.42
2019-02-17T15:30:18.443Z,25.00
2019-02-17T15:32:48.115Z,32.40
2019-02-17T15:35:18.008Z,22.87
2019-02-17T15:37:47.402Z,26.10
2019-02-17T15:40:17.531Z,23.80
2019-02-17T15:42:47.057Z,20.65
2019-02-17T15:45:16.422Z,23.85
2019-02-17T15:47:46.045Z,22.87
2019-02-17T15:50:15.972Z,23.38
2019-02-17T15:52:45.370Z,21.70
2019-02-17T15:55:15.964Z,21.52
2019-02-17T15:57:45.290Z,23.87
2019-02-17T16:00:17.286Z,21.23
2019-02-17T16:02:46.626Z,21.93
2019-02-17T16:05:15.978Z,20.65
2019-02-17T16:07:45.669Z,25.95
2019-02-17T16:10:17.295Z,26.07
2019-02-17T16:12:46.609Z,25.40
2019-02-17T16:15:22.946Z,23.62
2019-02-17T16:17:52.270Z,24.60
2019-02-17T16:20:21.754Z,25.65
2019-02-17T16:22:51.129Z,24.07
2019-02-17T16:25:20.452Z,22.10
2019-02-17T16:27:49.810Z,22.07
2019-02-17T16:30:24.073Z,23.12
2019-02-17T16:32:53.518Z,24.55
2019-02-17T16:35:22.846Z,22.52
2019-02-17T16:37:52.204Z,21.87
2019-02-17T16:40:21.524Z,23.10
2019-02-17T16:42:50.866Z,23.60
2019-02-17T16:45:20.338Z,26.75
2019-02-17T16:47:49.652Z,24.43
2019-02-17T16:50:26.290Z,22.82
2019-02-17T16:52:55.894Z,24.23
2019-02-17T16:55:25.506Z,23.95
2019-02-17T16:57:55.106Z,23.75
2019-02-17T17:00:27.540Z,24.67
2019-02-17T17:02:57.800Z,29.70
2019-02-17T17:05:27.319Z,30.75
2019-02-17T17:07:56.708Z,29.63
2019-02-17T17:10:26.204Z,27.10
2019-02-17T17:12:55.635Z,28.27
2019-02-17T17:15:25.194Z,28.17
2019-02-17T17:17:54.515Z,24.85
2019-02-17T17:20:24.238Z,23.47
2019-02-17T17:22:53.854Z,22.75
2019-02-17T17:25:23.405Z,21.95
2019-02-17T17:27:52.782Z,22.17
2019-02-17T17:30:22.128Z,27.25
2019-02-17T17:32:51.453Z,23.22
2019-02-17T17:35:20.830Z,25.62
2019-02-17T17:37:50.186Z,25.95
2019-02-17T17:40:20.054Z,22.70
2019-02-17T17:42:49.423Z,24.50
2019-02-17T17:45:21.736Z,22.42
2019-02-17T17:47:51.502Z,25.00
2019-02-17T17:50:23.268Z,25.90
2019-02-17T17:52:52.614Z,26.60
2019-02-17T17:55:21.976Z,28.77
2019-02-17T17:57:51.339Z,29.27
2019-02-17T18:00:22.816Z,26.97
2019-02-17T18:02:52.385Z,31.30
2019-02-17T18:05:21.764Z,26.93
2019-02-17T18:07:54.151Z,23.85
2019-02-17T18:10:23.772Z,24.90
2019-02-17T18:12:53.194Z,26.82
2019-02-17T18:15:22.880Z,29.57
2019-02-17T18:17:54.857Z,25.68
2019-02-17T18:20:23.648Z,26.33
2019-02-17T18:22:52.962Z,35.52
2019-02-17T18:25:22.275Z,24.12
2019-02-17T18:27:51.645Z,23.45
2019-02-17T18:30:21.533Z,26.73
2019-02-17T18:32:50.982Z,24.18
2019-02-17T18:35:20.795Z,29.35
2019-02-17T18:37:50.472Z,30.50
2019-02-17T18:40:20.760Z,31.10
2019-02-17T18:42:50.402Z,32.17
2019-02-17T18:45:19.708Z,31.27
2019-02-17T18:47:49.015Z,28.73
2019-02-17T18:50:19.583Z,31.07
2019-02-17T18:52:48.962Z,27.48
2019-02-17T18:55:18.277Z,29.85
2019-02-17T18:57:50.772Z,29.18
2019-02-17T19:00:26.766Z,30.32
2019-02-17T19:02:56.115Z,30.48
2019-02-17T19:05:31.958Z,34.98
2019-02-17T19:07:56.535Z,32.75
2019-02-17T19:10:26.223Z,30.80
2019-02-17T19:12:55.588Z,32.93
2019-02-17T19:15:24.935Z,31.80
2019-02-17T19:17:54.248Z,29.98
2019-02-17T19:20:36.667Z,31.10
2019-02-17T19:23:06.348Z,29.25
2019-02-17T19:25:36.132Z,29.63
2019-02-17T19:28:05.765Z,33.23
2019-02-17T19:30:35.354Z,34.85
2019-02-17T19:33:04.674Z,32.63
2019-02-17T19:35:41.616Z,34.33
2019-02-17T19:38:05.410Z,30.90
2019-02-17T19:40:34.762Z,32.17
2019-02-17T19:43:04.203Z,25.95
2019-02-17T19:45:33.840Z,30.02
2019-02-17T19:48:03.155Z,30.43
2019-02-17T19:50:32.826Z,30.62
2019-02-17T19:53:02.432Z,27.00
2019-02-17T19:55:32.047Z,27.98
2019-02-17T19:58:01.407Z,23.25
2019-02-17T20:00:31.064Z,24.40
2019-02-17T20:03:14.373Z,24.52
2019-02-17T20:05:54.643Z,31.45
2019-02-17T20:08:24.034Z,28.77
2019-02-17T20:10:53.347Z,24.65
2019-02-17T20:13:22.940Z,25.55
2019-02-17T20:15:52.295Z,24.75
2019-02-17T20:18:21.615Z,26.10
2019-02-17T20:20:50.925Z,29.20
2019-02-17T20:23:20.324Z,26.48
2019-02-17T20:25:49.970Z,24.40
2019-02-17T20:28:19.282Z,31.17
2019-02-17T20:30:48.704Z,28.90
2019-02-17T20:33:18.012Z,27.90
2019-02-17T20:35:47.672Z,32.08
2019-02-17T20:38:17.287Z,29.23
2019-02-17T20:40:46.894Z,28.90
2019-02-17T20:43:16.849Z,30.32
2019-02-17T20:45:46.529Z,28.62
2019-02-17T20:48:15.841Z,30.40
2019-02-17T20:50:45.151Z,33.18
2019-02-17T20:53:14.628Z,27.48
2019-02-17T20:55:43.964Z,32.40
2019-02-17T20:58:13.273Z,29.60
2019-02-17T21:00:42.670Z,30.05
2019-02-17T21:03:12.218Z,28.85
2019-02-17T21:05:41.533Z,28.35
2019-02-17T21:08:11.275Z,28.55
2019-02-17T21:10:40.579Z,29.12
2019-02-17T21:13:10.279Z,27.67
2019-02-17T21:15:39.954Z,29.05
2019-02-17T21:18:09.262Z,27.90
2019-02-17T21:20:38.632Z,27.45
2019-02-17T21:23:08.688Z,25.85
2019-02-17T21:25:38.060Z,31.15
2019-02-17T21:28:07.680Z,26.95
2019-02-17T21:30:37.289Z,29.57
2019-02-17T21:33:07.318Z,28.23
2019-02-17T21:35:36.619Z,27.75
2019-02-17T21:38:05.969Z,26.68
2019-02-17T21:40:35.331Z,25.05
2019-02-17T21:43:04.641Z,25.95
2019-02-17T21:45:34.063Z,24.40
2019-02-17T21:48:03.426Z,24.57
2019-02-17T21:50:32.735Z,25.35
2019-02-17T21:53:02.042Z,26.87
2019-02-17T21:55:31.410Z,24.85
2019-02-17T21:58:00.731Z,23.25
2019-02-17T22:00:30.043Z,28.30
2019-02-17T22:02:59.731Z,25.10
2019-02-17T22:05:29.110Z,23.70
2019-02-17T22:07:58.787Z,25.37
2019-02-17T22:10:28.106Z,28.12
2019-02-17T22:12:57.740Z,25.57
2019-02-17T22:15:27.066Z,27.75
2019-02-17T22:17:56.774Z,27.17
2019-02-17T22:20:26.082Z,28.80
2019-02-17T22:22:55.394Z,28.92
2019-02-17T22:25:24.838Z,25.48
2019-02-17T22:27:54.147Z,28.90
2019-02-17T22:30:23.763Z,33.42
2019-02-17T22:32:53.122Z,33.50
2019-02-17T22:35:22.465Z,30.52
2019-02-17T22:37:52.087Z,32.10
2019-02-17T22:40:21.454Z,29.77
2019-02-17T22:42:50.779Z,37.00
2019-02-17T22:45:20.092Z,32.83
2019-02-17T22:47:49.756Z,28.92
2019-02-17T22:50:19.221Z,28.38
2019-02-17T22:52:48.808Z,30.30
2019-02-17T22:55:18.131Z,31.65
2019-02-17T22:57:47.734Z,31.37
2019-02-17T23:00:41.045Z,33.67
2019-02-17T23:03:10.779Z,39.67
2019-02-17T23:05:40.090Z,35.50
2019-02-17T23:08:09.401Z,27.13
2019-02-17T23:10:38.798Z,30.10
2019-02-17T23:13:08.186Z,31.33
2019-02-17T23:15:37.493Z,27.35
2019-02-17T23:18:07.313Z,30.15
2019-02-17T23:20:36.939Z,27.13
2019-02-17T23:23:06.517Z,27.48
2019-02-17T23:25:35.992Z,27.58
2019-02-17T23:28:05.304Z,25.55
2019-02-17T23:30:34.638Z,29.45
2019-02-17T23:33:04.006Z,28.05
2019-02-17T23:35:33.314Z,27.62
2019-02-17T23:38:02.632Z,31.15
2019-02-17T23:40:32.364Z,25.45
2019-02-17T23:43:05.101Z,25.52
2019-02-17T23:45:34.729Z,25.52
2019-02-17T23:48:04.083Z,26.42
2019-02-17T23:50:33.436Z,28.02
2019-02-17T23:53:02.779Z,25.50
2019-02-17T23:55:32.088Z,29.25
2019-02-17T23:58:01.778Z,23.10
